Time;durP1;ratioP1;P1;durP2;ratioP2;P2;SDS_P1;SDS_P2;PMS_P1;PMS_P2;Temp;Humidity;BMP_temperature;BMP_pressure;BME280_temperature;BME280_humidity;BME280_pressure;Samples;Min_cycle;Max_cycle;Signal;HPM_P1;HPM_P2
2022/05/24 00:02:17;;;;;;;4.47;2.42;;;16.70;64.50;;;;;;5002253;28;20136;-80
2022/05/24 00:04:43;;;;;;;4.10;2.15;;;16.70;64.40;;;;;;5000319;28;20437;-79
2022/05/24 00:07:09;;;;;;;2.97;1.73;;;16.70;64.50;;;;;;5000888;28;20043;-80
2022/05/24 00:09:34;;;;;;;3.97;2.10;;;16.70;64.40;;;;;;5008795;28;20041;-79
2022/05/24 00:12:00;;;;;;;4.07;2.17;;;16.70;64.40;;;;;;5007420;28;20038;-79
2022/05/24 00:17:10;;;;;;;3.65;2.03;;;16.70;64.80;;;;;;5003610;28;20100;-80
2022/05/24 00:19:35;;;;;;;3.92;2.05;;;16.70;64.40;;;;;;4996724;28;20061;-80
2022/05/24 00:22:01;;;;;;;2.95;1.60;;;16.70;64.40;;;;;;4996032;28;20049;-79
2022/05/24 00:24:27;;;;;;;5.90;2.50;;;16.70;64.40;;;;;;5007534;28;20401;-79
2022/05/24 00:26:52;;;;;;;4.70;1.90;;;16.60;64.30;;;;;;5010439;28;20046;-80
2022/05/24 00:29:18;;;;;;;3.58;1.98;;;16.70;64.50;;;;;;4999288;28;20038;-79
2022/05/24 00:31:44;;;;;;;3.20;2.03;;;16.70;64.50;;;;;;4993525;28;20117;-79
2022/05/24 00:34:09;;;;;;;3.38;1.63;;;16.60;64.40;;;;;;5001434;28;20057;-79
2022/05/24 00:36:35;;;;;;;5.07;1.80;;;16.70;64.50;;;;;;4995120;28;20418;-79
2022/05/24 00:39:01;;;;;;;3.83;1.80;;;16.60;64.40;;;;;;5001107;28;20042;-80
2022/05/24 00:41:36;;;;;;;3.08;2.10;;;16.60;64.40;;;;;;4996709;28;20054;-80
2022/05/24 00:44:23;;;;;;;2.47;1.70;;;16.70;64.50;;;;;;5006611;28;20073;-80
2022/05/24 00:46:54;;;;;;;3.72;1.90;;;16.60;64.40;;;;;;5005476;28;20042;-79
2022/05/24 00:49:33;;;;;;;5.60;2.53;;;16.60;64.50;;;;;;4996911;28;20038;-80
2022/05/24 00:52:07;;;;;;;3.50;2.83;;;16.60;64.40;;;;;;4996647;28;20035;-80
2022/05/24 00:54:33;;;;;;;4.30;2.30;;;16.60;64.50;;;;;;4995164;28;20046;-80
2022/05/24 00:57:05;;;;;;;5.65;3.00;;;16.60;64.50;;;;;;4996488;28;20042;-80
2022/05/24 00:59:40;;;;;;;3.75;2.65;;;16.60;64.70;;;;;;5008465;28;20505;-80
2022/05/24 01:02:05;;;;;;;4.70;2.92;;;16.60;64.70;;;;;;5012681;28;20041;-80
2022/05/24 01:04:32;;;;;;;6.88;3.75;;;16.50;64.60;;;;;;5004287;28;20046;-80
2022/05/24 01:06:57;;;;;;;6.68;4.22;;;16.60;64.80;;;;;;5010493;28;20041;-79
2022/05/24 01:09:32;;;;;;;4.70;3.38;;;16.50;64.90;;;;;;4996638;28;20039;-79
2022/05/24 01:12:06;;;;;;;6.60;4.97;;;16.50;65.00;;;;;;4994462;28;20054;-80
2022/05/24 01:14:32;;;;;;;8.13;5.93;;;16.50;65.10;;;;;;5009266;28;20172;-80
2022/05/24 01:16:59;;;;;;;6.70;4.63;;;16.50;65.20;;;;;;5012082;28;20632;-80
2022/05/24 01:19:41;;;;;;;5.72;4.20;;;16.40;65.20;;;;;;5002597;28;20061;-80
2022/05/24 01:22:41;;;;;;;5.75;4.28;;;16.40;65.10;;;;;;4996097;28;20045;-80
2022/05/24 01:25:25;;;;;;;8.45;5.32;;;16.40;65.00;;;;;;4995358;28;20493;-79
2022/05/24 01:27:50;;;;;;;7.22;5.90;;;16.40;65.20;;;;;;4995257;28;20121;-80
2022/05/24 01:30:16;;;;;;;5.65;5.03;;;16.40;65.20;;;;;;5002708;28;20125;-80
2022/05/24 01:38:15;;;;;;;9.52;7.68;;;16.30;65.70;;;;;;5011182;28;20055;-80
2022/05/24 01:40:42;;;;;;;5.78;4.50;;;16.30;65.90;;;;;;4999381;28;20077;-80
2022/05/24 01:43:09;;;;;;;8.10;6.80;;;16.20;65.90;;;;;;5013704;28;20048;-80
2022/05/24 01:45:42;;;;;;;10.43;7.80;;;16.30;66.10;;;;;;5006615;28;20053;-81
2022/05/24 01:48:13;;;;;;;10.07;7.20;;;16.20;66.20;;;;;;5011080;28;20152;-79
2022/05/24 01:50:41;;;;;;;9.07;7.45;;;16.20;66.20;;;;;;4996112;28;20042;-80
2022/05/24 01:53:21;;;;;;;8.23;6.25;;;16.20;66.30;;;;;;5013410;28;20065;-80
2022/05/24 01:55:53;;;;;;;9.07;8.10;;;16.20;66.40;;;;;;5003365;28;20046;-81
2022/05/24 01:58:22;;;;;;;12.15;9.68;;;16.20;66.60;;;;;;5010334;28;20073;-81
2022/05/24 02:00:53;;;;;;;11.48;8.95;;;16.20;66.90;;;;;;5004184;28;20446;-81
2022/05/24 02:03:19;;;;;;;8.32;7.15;;;16.20;67.00;;;;;;4998844;28;20042;-80
2022/05/24 02:05:46;;;;;;;10.60;8.70;;;16.10;66.90;;;;;;5004339;28;20045;-81
2022/05/24 02:08:12;;;;;;;11.10;8.77;;;16.10;67.00;;;;;;5013037;28;20465;-80
2022/05/24 02:10:55;;;;;;;12.25;9.65;;;16.10;67.20;;;;;;4998105;28;20490;-80
2022/05/24 02:13:42;;;;;;;12.90;11.52;;;16.10;67.40;;;;;;5011370;28;20072;-81
2022/05/24 02:16:12;;;;;;;15.90;12.90;;;16.10;67.50;;;;;;5002564;28;20057;-81
2022/05/24 02:18:41;;;;;;;14.82;12.05;;;16.10;67.70;;;;;;4993958;28;20045;-80
2022/05/24 02:21:07;;;;;;;12.80;10.65;;;16.00;67.80;;;;;;5005024;28;20138;-82
2022/05/24 02:23:44;;;;;;;15.15;11.82;;;16.00;67.90;;;;;;5009802;28;20580;-81
2022/05/24 02:26:12;;;;;;;16.98;12.57;;;16.00;68.10;;;;;;4999822;28;20424;-79
2022/05/24 02:28:38;;;;;;;18.80;16.80;;;16.00;68.20;;;;;;5009777;28;20052;-81
2022/05/24 02:31:11;;;;;;;18.60;16.80;;;15.90;68.30;;;;;;4996317;28;20057;-81
2022/05/24 02:33:37;;;;;;;19.15;16.23;;;15.90;68.60;;;;;;4995795;28;20066;-80
2022/05/24 02:36:04;;;;;;;20.05;18.05;;;15.90;68.60;;;;;;5000927;28;20064;-79
2022/05/24 02:38:29;;;;;;;24.33;19.85;;;15.90;68.80;;;;;;5012500;28;20053;-81
2022/05/24 02:43:40;;;;;;;;;;;15.80;69.10;;;;;;5008990;28;20050;-81
2022/05/24 02:46:07;;;;;;;19.67;17.48;;;15.80;68.70;;;;;;5012798;28;19928;-81
2022/05/24 02:48:33;;;;;;;19.38;17.20;;;15.80;69.10;;;;;;4997738;28;20046;-81
2022/05/24 02:50:58;;;;;;;23.55;20.35;;;15.80;69.30;;;;;;4997217;28;20053;-81
2022/05/24 02:53:25;;;;;;;19.45;17.52;;;15.80;69.40;;;;;;4997318;28;20035;-81
2022/05/24 02:55:50;;;;;;;19.75;17.73;;;15.80;69.50;;;;;;5001887;28;20037;-81
2022/05/24 02:58:16;;;;;;;27.17;23.92;;;15.70;69.50;;;;;;5005726;28;20049;-81
2022/05/24 03:00:43;;;;;;;24.45;21.77;;;15.70;69.70;;;;;;5001357;28;20042;-80
2022/05/24 03:03:09;;;;;;;23.70;21.13;;;15.80;69.90;;;;;;5005104;28;20049;-81
2022/05/24 03:05:35;;;;;;;22.77;20.42;;;15.70;69.90;;;;;;4999615;28;20042;-81
2022/05/24 03:10:45;;;;;;;23.52;20.63;;;15.80;70.00;;;;;;5023502;28;20089;-81
2022/05/24 03:15:56;;;;;;;19.30;17.25;;;15.70;70.00;;;;;;5030472;28;20050;-80
2022/05/24 03:18:22;;;;;;;21.33;19.05;;;15.70;70.00;;;;;;5037591;28;20069;-81
2022/05/24 03:20:49;;;;;;;19.52;17.52;;;15.80;70.10;;;;;;5006145;28;20069;-81
2022/05/24 03:23:16;;;;;;;18.15;15.50;;;15.80;70.00;;;;;;5000482;28;20038;-81
2022/05/24 03:25:42;;;;;;;18.90;16.98;;;15.80;69.90;;;;;;5013630;28;20076;-82
2022/05/24 03:28:08;;;;;;;19.98;17.90;;;15.80;69.90;;;;;;5003918;28;20089;-81
2022/05/24 03:30:41;;;;;;;18.90;16.95;;;15.80;69.90;;;;;;5005457;28;20092;-82
2022/05/24 03:33:07;;;;;;;19.73;16.67;;;15.80;70.00;;;;;;5007409;28;20379;-81
2022/05/24 03:35:33;;;;;;;15.95;14.23;;;15.90;69.80;;;;;;5004230;28;20052;-82
2022/05/24 03:37:58;;;;;;;15.48;13.88;;;15.80;69.60;;;;;;4997639;28;20035;-81
2022/05/24 03:40:24;;;;;;;15.52;13.93;;;15.90;69.50;;;;;;4997268;28;20042;-81
2022/05/24 03:42:51;;;;;;;16.75;15.18;;;15.90;69.40;;;;;;5000835;28;20477;-81
2022/05/24 03:45:18;;;;;;;20.10;17.60;;;15.90;69.30;;;;;;5005470;28;20046;-81
2022/05/24 03:47:44;;;;;;;13.93;12.40;;;15.90;69.50;;;;;;5005079;28;20112;-83
2022/05/24 03:50:10;;;;;;;15.10;13.60;;;15.90;69.30;;;;;;5004657;28;20117;-81
2022/05/24 03:52:36;;;;;;;14.23;12.10;;;15.90;69.20;;;;;;5007584;28;20042;-81
2022/05/24 03:55:02;;;;;;;14.00;11.70;;;15.90;68.90;;;;;;5011729;28;20390;-82
2022/05/24 04:00:14;;;;;;;16.20;13.73;;;15.90;68.70;;;;;;5027552;28;20561;-82
2022/05/24 04:02:40;;;;;;;13.50;12.07;;;15.90;68.70;;;;;;5004658;28;20038;-81
2022/05/24 04:05:06;;;;;;;15.02;11.88;;;16.00;68.70;;;;;;5016300;28;20033;-82
2022/05/24 04:07:32;;;;;;;14.50;10.95;;;16.00;68.70;;;;;;5012904;28;20046;-81
2022/05/24 04:09:58;;;;;;;13.68;11.55;;;16.00;68.70;;;;;;5013848;28;20044;-81
2022/05/24 04:12:23;;;;;;;11.65;10.43;;;16.00;69.20;;;;;;5010984;28;20045;-82
2022/05/24 04:14:50;;;;;;;11.35;10.18;;;16.00;68.70;;;;;;5010156;28;20084;-83
2022/05/24 04:17:15;;;;;;;12.68;11.25;;;16.00;68.60;;;;;;5013447;28;20065;-81
2022/05/24 04:19:41;;;;;;;13.90;12.18;;;16.00;68.40;;;;;;5003278;28;20066;-82
2022/05/24 04:22:07;;;;;;;14.15;12.65;;;16.00;68.50;;;;;;5013605;28;20041;-83
2022/05/24 04:24:32;;;;;;;13.77;12.00;;;16.00;68.50;;;;;;5002998;28;20433;-82
2022/05/24 04:26:58;;;;;;;12.27;10.13;;;16.00;68.50;;;;;;5002413;28;20057;-82
2022/05/24 04:29:23;;;;;;;13.93;11.43;;;16.10;68.50;;;;;;5008815;28;20041;-82
2022/05/24 04:31:49;;;;;;;16.70;12.63;;;16.00;68.30;;;;;;5011835;28;20492;-82
2022/05/24 04:34:16;;;;;;;15.65;13.60;;;16.10;68.40;;;;;;5008541;28;20056;-82
2022/05/24 04:36:42;;;;;;;22.02;17.30;;;16.10;68.30;;;;;;5008029;28;20057;-83
2022/05/24 04:39:07;;;;;;;20.88;16.10;;;16.10;68.30;;;;;;5006785;28;20600;-83
2022/05/24 04:44:17;;;;;;;17.40;15.60;;;16.00;68.00;;;;;;5017731;28;20402;-83
2022/05/24 04:49:27;;;;;;;20.95;16.73;;;16.00;67.80;;;;;;5015227;28;20055;-82
2022/05/24 04:51:53;;;;;;;16.42;14.52;;;16.00;67.80;;;;;;5005278;28;20096;-83
2022/05/24 04:54:19;;;;;;;20.98;14.80;;;16.00;67.70;;;;;;4999496;28;20482;-83
2022/05/24 04:56:46;;;;;;;18.48;14.80;;;16.00;67.60;;;;;;4996246;28;20038;-82
2022/05/24 04:59:16;;;;;;;20.63;13.43;;;16.00;67.60;;;;;;5005286;28;20092;-82
2022/05/24 05:01:42;;;;;;;20.90;13.88;;;16.00;67.40;;;;;;5012322;28;20034;-82
2022/05/24 05:04:08;;;;;;;17.30;13.48;;;16.00;67.40;;;;;;5007985;28;20065;-82
2022/05/24 05:06:34;;;;;;;15.13;11.15;;;16.00;67.40;;;;;;5007579;28;20089;-83
2022/05/24 05:08:59;;;;;;;17.52;11.75;;;15.90;67.20;;;;;;4998491;28;20047;-82
2022/05/24 05:11:25;;;;;;;14.45;11.55;;;16.00;67.30;;;;;;5001002;28;20125;-82
2022/05/24 05:13:51;;;;;;;16.70;12.18;;;15.90;67.10;;;;;;5005698;28;20048;-82
2022/05/24 05:16:17;;;;;;;19.05;13.15;;;15.90;67.10;;;;;;5000204;28;20054;-82
2022/05/24 05:18:43;;;;;;;15.95;11.60;;;15.90;67.10;;;;;;5002949;28;20035;-81
2022/05/24 05:21:09;;;;;;;15.13;11.80;;;15.90;67.00;;;;;;5004642;28;20042;-82
2022/05/24 05:23:35;;;;;;;16.88;12.15;;;15.90;67.00;;;;;;5000531;28;20089;-83
2022/05/24 05:26:01;;;;;;;15.85;11.18;;;15.90;66.90;;;;;;5007171;28;20089;-81
2022/05/24 05:28:27;;;;;;;17.48;12.02;;;15.90;66.90;;;;;;5004028;28;20041;-81
2022/05/24 05:33:37;;;;;;;14.13;11.98;;;15.90;67.20;;;;;;5018004;28;20045;-81
2022/05/24 05:36:03;;;;;;;15.18;11.13;;;15.90;67.30;;;;;;5003986;28;20485;-81
2022/05/24 05:38:31;;;;;;;14.30;10.55;;;15.90;67.40;;;;;;5002048;28;20077;-81
2022/05/24 05:40:58;;;;;;;14.50;11.07;;;15.90;67.40;;;;;;4997061;28;20132;-82
2022/05/24 05:43:24;;;;;;;16.50;11.45;;;15.90;67.40;;;;;;5007928;28;20042;-81
2022/05/24 05:45:59;;;;;;;17.90;12.25;;;15.80;67.40;;;;;;4976577;28;20125;-81
2022/05/24 05:48:26;;;;;;;16.15;11.05;;;15.90;67.60;;;;;;4978760;28;20053;-80
2022/05/24 05:50:52;;;;;;;19.13;12.52;;;15.90;67.60;;;;;;5002726;28;20049;-81
2022/05/24 05:53:19;;;;;;;15.98;11.57;;;15.80;67.60;;;;;;4995985;28;20125;-81
2022/05/24 05:55:45;;;;;;;17.65;11.63;;;15.80;67.70;;;;;;4999069;28;20046;-80
2022/05/24 05:58:11;;;;;;;17.25;11.30;;;15.80;67.80;;;;;;4994782;28;20109;-81
2022/05/24 06:00:39;;;;;;;18.00;11.20;;;15.80;67.80;;;;;;5007842;28;20525;-81
2022/05/24 06:03:04;;;;;;;13.38;9.80;;;15.80;67.70;;;;;;5015287;28;20511;-80
2022/05/24 06:05:30;;;;;;;14.20;10.65;;;15.80;67.80;;;;;;4996866;28;20097;-80
2022/05/24 06:07:58;;;;;;;15.75;9.90;;;15.80;67.80;;;;;;4998618;28;20497;-80
2022/05/24 06:10:24;;;;;;;15.98;11.95;;;15.80;67.80;;;;;;5000813;28;20073;-81
2022/05/24 06:12:51;;;;;;;13.32;10.77;;;15.90;67.90;;;;;;4995852;28;20038;-80
2022/05/24 06:15:17;;;;;;;15.68;10.07;;;15.90;67.90;;;;;;5006896;28;20053;-80
2022/05/24 06:17:45;;;;;;;11.65;8.02;;;15.90;67.90;;;;;;5015231;28;20053;-80
2022/05/24 06:20:11;;;;;;;15.90;9.75;;;15.90;67.70;;;;;;5003212;28;20436;-81
2022/05/24 06:22:37;;;;;;;17.70;10.95;;;16.00;67.70;;;;;;4995034;28;20042;-80
2022/05/24 06:25:03;;;;;;;15.00;9.77;;;15.90;67.60;;;;;;4995394;28;20034;-80
2022/05/24 06:27:29;;;;;;;13.50;9.77;;;16.00;67.60;;;;;;4988412;28;20125;-80
2022/05/24 06:29:54;;;;;;;13.68;9.70;;;16.00;67.60;;;;;;5002999;28;20084;-80
2022/05/24 06:32:20;;;;;;;11.40;8.40;;;16.00;67.60;;;;;;5013418;28;20046;-80
2022/05/24 06:34:48;;;;;;;13.18;9.15;;;16.00;67.40;;;;;;5013416;28;20057;-81
2022/05/24 06:37:15;;;;;;;14.82;11.23;;;15.90;67.20;;;;;;4995925;28;20046;-81
2022/05/24 06:39:41;;;;;;;15.32;9.45;;;16.00;67.20;;;;;;4994278;28;20046;-81
2022/05/24 06:42:07;;;;;;;16.25;9.73;;;16.10;67.20;;;;;;4995052;28;20470;-81
2022/05/24 06:44:33;;;;;;;16.00;9.82;;;16.10;67.10;;;;;;4995933;28;20081;-81
2022/05/24 06:46:59;;;;;;;15.27;9.65;;;16.10;66.90;;;;;;4997915;28;20038;-81
2022/05/24 06:49:24;;;;;;;18.63;9.57;;;16.10;66.90;;;;;;4993658;28;20034;-81
2022/05/24 06:51:50;;;;;;;14.45;9.10;;;16.20;66.90;;;;;;4994370;28;20129;-81
2022/05/24 06:54:16;;;;;;;12.65;9.68;;;16.10;66.80;;;;;;4993691;28;20039;-81
2022/05/24 06:56:41;;;;;;;14.68;8.68;;;16.10;66.80;;;;;;4993545;28;20054;-81
2022/05/24 07:04:38;;;;;;;13.75;7.68;;;16.20;66.60;;;;;;5017796;28;20055;-80
2022/05/24 07:07:04;;;;;;;12.88;8.90;;;16.20;66.50;;;;;;4995424;28;20078;-81
2022/05/24 07:09:31;;;;;;;12.80;7.78;;;16.10;66.30;;;;;;4994244;28;20046;-81
2022/05/24 07:11:58;;;;;;;11.55;9.18;;;16.20;66.30;;;;;;5012459;28;20053;-81
2022/05/24 07:14:23;;;;;;;14.65;8.10;;;16.10;66.30;;;;;;5010221;28;20049;-81
2022/05/24 07:16:49;;;;;;;11.57;8.02;;;16.10;66.30;;;;;;5013506;28;20057;-81
2022/05/24 07:19:15;;;;;;;17.85;9.68;;;16.20;66.30;;;;;;4994341;28;20046;-81
2022/05/24 07:21:40;;;;;;;12.50;8.18;;;16.20;66.20;;;;;;5009057;28;20543;-80
2022/05/24 07:24:06;;;;;;;11.60;7.20;;;16.20;66.10;;;;;;5010033;28;20044;-80
2022/05/24 07:26:32;;;;;;;13.70;9.60;;;16.20;65.90;;;;;;4999892;28;20053;-80
2022/05/24 07:28:57;;;;;;;14.13;10.02;;;16.20;65.90;;;;;;4994541;28;20039;-80
2022/05/24 07:31:23;;;;;;;10.95;8.40;;;16.20;66.00;;;;;;5005555;28;20092;-80
2022/05/24 07:33:48;;;;;;;9.95;7.70;;;16.20;66.00;;;;;;5012696;28;20050;-81
2022/05/24 07:36:14;;;;;;;12.65;9.07;;;16.20;65.80;;;;;;4998273;28;20049;-80
2022/05/24 07:38:40;;;;;;;11.82;8.25;;;16.20;65.90;;;;;;4994360;28;20042;-80
2022/05/24 07:46:34;;;;;;;17.83;9.93;;;16.20;65.80;;;;;;5012314;28;20061;-81
2022/05/24 07:49:00;;;;;;;16.60;9.52;;;16.20;66.00;;;;;;5015342;28;20042;-81
2022/05/24 07:51:26;;;;;;;12.95;9.80;;;16.20;66.10;;;;;;5007616;28;20044;-80
2022/05/24 07:53:52;;;;;;;15.77;10.05;;;16.20;66.00;;;;;;5016192;28;20145;-81
2022/05/24 07:56:19;;;;;;;13.60;9.32;;;16.30;66.00;;;;;;4999345;28;20050;-81
2022/05/24 07:58:47;;;;;;;11.07;8.52;;;16.30;65.90;;;;;;5005422;28;20069;-80
2022/05/24 08:01:15;;;;;;;10.57;8.15;;;16.30;65.80;;;;;;4995481;28;20081;-80
2022/05/24 08:03:41;;;;;;;9.50;7.97;;;16.40;66.30;;;;;;5016725;28;20053;-80
2022/05/24 08:06:07;;;;;;;9.32;7.30;;;16.50;65.90;;;;;;5006950;28;20042;-80
2022/05/24 08:08:33;;;;;;;10.35;7.35;;;16.60;65.50;;;;;;4998661;28;20143;-81
2022/05/24 08:10:59;;;;;;;9.93;6.38;;;16.70;65.10;;;;;;4996241;28;20116;-81
2022/05/24 08:13:25;;;;;;;11.95;6.00;;;16.80;64.80;;;;;;4996246;28;20054;-81
2022/05/24 08:15:53;;;;;;;14.57;6.15;;;16.90;64.50;;;;;;5025801;28;20081;-81
2022/05/24 08:18:19;;;;;;;11.35;5.30;;;17.10;64.10;;;;;;4994465;28;20653;-81
2022/05/24 08:20:46;;;;;;;10.27;5.40;;;17.30;63.50;;;;;;4994996;28;20498;-82
2022/05/24 08:23:12;;;;;;;9.63;5.43;;;17.40;62.70;;;;;;4992553;28;20093;-82
2022/05/24 08:25:38;;;;;;;6.97;4.60;;;17.50;62.10;;;;;;4994002;28;20081;-82
2022/05/24 08:28:07;;;;;;;7.55;4.53;;;17.60;61.80;;;;;;4994258;28;20770;-81
2022/05/24 08:30:35;;;;;;;7.60;4.35;;;17.70;61.40;;;;;;4992590;28;20054;-81
2022/05/24 08:33:04;;;;;;;7.80;4.47;;;17.80;60.30;;;;;;4993478;28;20417;-80
2022/05/24 08:35:33;;;;;;;8.38;4.30;;;17.90;60.00;;;;;;5007463;28;20476;-81
2022/05/24 08:38:00;;;;;;;7.68;3.60;;;18.00;59.60;;;;;;5001755;28;20405;-81
2022/05/24 08:40:26;;;;;;;8.20;4.00;;;18.10;59.70;;;;;;4992444;28;20097;-81
2022/05/24 08:43:03;;;;;;;6.38;3.60;;;18.20;59.50;;;;;;4994477;28;20502;-81
2022/05/24 08:48:26;;;;;;;7.32;3.42;;;18.60;58.90;;;;;;5011084;28;20247;-81
2022/05/24 08:51:07;;;;;;;9.15;3.83;;;18.80;58.20;;;;;;5011202;28;20062;-81
2022/05/24 08:53:37;;;;;;;6.43;3.78;;;19.00;57.80;;;;;;5005608;28;20080;-81
2022/05/24 08:56:07;;;;;;;6.45;3.53;;;19.20;57.40;;;;;;4993144;28;20512;-81
2022/05/24 08:58:41;;;;;;;7.50;3.25;;;19.30;57.00;;;;;;4994485;28;20050;-81
2022/05/24 09:01:23;;;;;;;4.22;2.90;;;19.30;56.30;;;;;;4991578;28;20544;-81
2022/05/24 09:03:49;;;;;;;4.28;2.75;;;19.20;56.10;;;;;;4992901;28;20054;-81
2022/05/24 09:06:34;;;;;;;6.15;3.55;;;19.40;56.20;;;;;;5003212;28;20057;-81
2022/05/24 09:09:19;;;;;;;5.68;2.80;;;19.40;55.90;;;;;;5006463;28;20178;-81
2022/05/24 09:12:08;;;;;;;4.28;1.92;;;19.40;55.80;;;;;;5009171;28;20513;-81
2022/05/24 09:14:42;;;;;;;6.18;2.40;;;19.30;55.60;;;;;;4998781;28;20060;-81
2022/05/24 09:17:33;;;;;;;4.82;2.67;;;19.40;55.70;;;;;;5009545;28;20061;-80
2022/05/24 09:19:59;;;;;;;4.90;3.15;;;19.30;55.30;;;;;;4992103;28;20085;-80
2022/05/24 09:22:31;;;;;;;5.97;2.80;;;19.30;55.90;;;;;;4994198;28;20421;-79
2022/05/24 09:24:57;;;;;;;5.20;2.35;;;19.30;56.20;;;;;;4993175;28;20137;-80
2022/05/24 09:27:28;;;;;;;6.03;2.97;;;19.30;56.70;;;;;;4996955;28;21479;-80
2022/05/24 09:29:55;;;;;;;4.57;3.10;;;19.30;56.50;;;;;;4996840;28;20126;-80
2022/05/24 09:32:27;;;;;;;5.18;3.13;;;19.30;56.70;;;;;;4996188;28;20077;-80
2022/05/24 09:35:21;;;;;;;7.22;3.67;;;19.30;56.60;;;;;;5011804;28;20058;-80
2022/05/24 09:38:14;;;;;;;6.47;3.47;;;19.30;56.70;;;;;;4998218;28;20096;-80
2022/05/24 09:40:56;;;;;;;7.30;4.00;;;19.40;56.80;;;;;;4995390;28;20045;-79
2022/05/24 09:43:33;;;;;;;5.22;3.05;;;19.50;56.90;;;;;;4996445;28;20492;-81
2022/05/24 09:46:15;;;;;;;5.13;2.53;;;19.60;55.70;;;;;;4996527;28;20421;-80
2022/05/24 09:49:00;;;;;;;5.30;2.30;;;19.60;55.20;;;;;;4997429;28;20117;-81
2022/05/24 09:51:41;;;;;;;5.63;2.80;;;19.70;53.90;;;;;;4995990;28;20050;-80
2022/05/24 09:54:21;;;;;;;4.25;2.42;;;19.80;54.20;;;;;;5009567;28;20354;-81
2022/05/24 09:57:11;;;;;;;5.85;1.33;;;19.80;54.40;;;;;;5006404;28;20073;-80
2022/05/24 09:59:41;;;;;;;5.75;1.33;;;19.80;54.40;;;;;;4997147;28;20247;-80
2022/05/24 10:02:30;;;;;;;3.58;1.10;;;19.70;54.50;;;;;;4997395;28;20121;-79
2022/05/24 10:04:56;;;;;;;2.90;0.75;;;19.70;55.20;;;;;;4995952;28;20054;-80
2022/05/24 10:07:25;;;;;;;2.28;0.93;;;19.60;55.20;;;;;;4995940;28;20046;-79
2022/05/24 10:10:01;;;;;;;3.60;1.27;;;19.60;55.40;;;;;;4995716;28;20042;-79
2022/05/24 10:12:46;;;;;;;2.20;0.50;;;19.50;55.50;;;;;;4995559;28;20061;-80
2022/05/24 10:15:25;;;;;;;2.50;0.80;;;19.40;55.20;;;;;;4976082;28;20490;-80
2022/05/24 10:18:29;;;;;;;1.88;0.95;;;19.30;55.80;;;;;;4981491;28;20494;-81
2022/05/24 10:21:07;;;;;;;;;;;19.20;56.50;;;;;;4955330;29;20093;-80
2022/05/24 10:23:57;;;;;;;2.47;0.98;;;19.10;56.90;;;;;;4964238;28;19926;-80
2022/05/24 10:26:41;;;;;;;2.58;1.15;;;18.90;57.10;;;;;;4961220;28;20105;-80
2022/05/24 10:29:25;;;;;;;3.88;1.13;;;18.80;57.30;;;;;;4963904;28;20051;-80
2022/05/24 10:31:57;;;;;;;;;;;18.80;57.80;;;;;;4948660;29;20412;-80
2022/05/24 10:38:17;;;;;;;2.70;1.23;;;18.60;58.60;;;;;;4973849;28;20090;-80
2022/05/24 10:40:59;;;;;;;3.38;1.50;;;18.60;58.60;;;;;;4970610;28;20038;-79
2022/05/24 10:43:46;;;;;;;2.05;0.98;;;18.50;58.60;;;;;;4972499;28;20047;-81
2022/05/24 10:46:15;;;;;;;2.42;1.20;;;18.50;58.50;;;;;;4953848;28;20074;-80
2022/05/24 10:48:44;;;;;;;5.03;1.60;;;18.30;58.70;;;;;;4956257;28;20062;-80
2022/05/24 10:51:47;;;;;;;3.45;1.70;;;18.30;58.70;;;;;;4958911;28;20058;-80
2022/05/24 10:54:22;;;;;;;2.53;1.50;;;18.20;58.80;;;;;;4939689;29;20047;-80
2022/05/24 10:57:10;;;;;;;3.22;1.20;;;18.10;59.40;;;;;;4958973;28;20089;-80
2022/05/24 10:59:52;;;;;;;3.08;1.25;;;18.00;59.30;;;;;;5003580;28;20056;-80
2022/05/24 11:02:34;;;;;;;2.80;1.48;;;17.90;59.50;;;;;;5008903;28;20401;-81
2022/05/24 11:05:11;;;;;;;2.85;1.35;;;17.80;60.00;;;;;;5006195;28;20092;-81
2022/05/24 11:07:37;;;;;;;1.70;1.05;;;17.80;60.00;;;;;;5014688;28;20440;-80
2022/05/24 11:10:09;;;;;;;3.33;1.10;;;17.70;60.20;;;;;;5002654;28;20050;-80
2022/05/24 11:12:44;;;;;;;3.22;1.30;;;17.70;60.30;;;;;;4995918;28;20042;-80
2022/05/24 11:15:15;;;;;;;2.80;0.95;;;17.70;60.60;;;;;;4999985;28;20054;-80
2022/05/24 11:17:41;;;;;;;2.38;0.95;;;17.60;61.00;;;;;;4999021;28;20134;-80
2022/05/24 11:20:10;;;;;;;2.20;0.82;;;17.60;61.10;;;;;;5014942;28;20049;-80
2022/05/24 11:23:07;;;;;;;1.45;0.70;;;17.60;61.20;;;;;;5005463;28;20069;-80
2022/05/24 11:25:45;;;;;;;3.03;1.10;;;17.60;61.40;;;;;;5000931;28;20096;-81
2022/05/24 11:28:21;;;;;;;3.92;0.57;;;17.60;61.00;;;;;;5002317;28;20149;-80
2022/05/24 11:30:48;;;;;;;1.98;0.60;;;17.60;60.80;;;;;;5004259;28;20413;-79
2022/05/24 11:33:26;;;;;;;2.60;0.60;;;17.60;61.20;;;;;;5006114;28;20041;-80
2022/05/24 11:35:52;;;;;;;2.80;0.77;;;17.70;61.30;;;;;;5020782;28;20060;-80
2022/05/24 11:38:23;;;;;;;3.50;0.95;;;17.70;61.50;;;;;;4993397;28;20047;-79
2022/05/24 11:41:19;;;;;;;2.22;0.68;;;17.70;61.50;;;;;;5017495;28;20026;-78
2022/05/24 11:43:44;;;;;;;2.85;0.77;;;17.80;61.40;;;;;;5004427;28;20133;-79
2022/05/24 11:46:33;;;;;;;1.98;0.60;;;17.90;61.30;;;;;;5009245;28;20092;-80
2022/05/24 11:49:00;;;;;;;2.67;0.90;;;17.90;61.00;;;;;;4956932;28;20142;-79
2022/05/24 11:51:43;;;;;;;4.00;0.90;;;17.90;60.60;;;;;;4955107;28;20055;-80
2022/05/24 11:54:18;;;;;;;4.20;0.70;;;18.00;59.90;;;;;;4969354;28;20449;-80
2022/05/24 11:57:02;;;;;;;2.60;1.42;;;18.00;59.30;;;;;;4971269;28;20138;-80
2022/05/24 11:59:40;;;;;;;2.20;0.80;;;18.00;59.30;;;;;;4971874;28;20047;-80
2022/05/24 12:02:26;;;;;;;3.30;1.17;;;18.10;59.90;;;;;;4936818;29;20059;-80
2022/05/24 12:07:55;;;;;;;3.35;1.50;;;18.30;60.40;;;;;;4953665;29;20130;-81
2022/05/24 12:10:20;;;;;;;3.67;1.00;;;18.30;59.60;;;;;;4956651;28;20047;-80
2022/05/24 12:12:51;;;;;;;2.60;0.70;;;18.40;59.10;;;;;;4953289;29;20078;-80
2022/05/24 12:15:21;;;;;;;2.55;0.80;;;18.50;58.40;;;;;;4971085;28;20091;-80
2022/05/24 12:18:00;;;;;;;3.67;0.90;;;18.50;57.90;;;;;;4972627;28;20125;-81
2022/05/24 12:20:33;;;;;;;2.20;0.70;;;18.50;56.80;;;;;;4958432;28;20183;-80
2022/05/24 12:23:07;;;;;;;3.05;0.57;;;18.40;57.00;;;;;;4972785;28;20054;-80
2022/05/24 12:26:15;;;;;;;2.65;0.70;;;18.20;56.60;;;;;;4976834;28;20073;-79
2022/05/24 12:28:52;;;;;;;2.45;0.82;;;18.10;57.00;;;;;;4974785;28;20129;-80
2022/05/24 12:31:18;;;;;;;3.00;0.73;;;17.90;56.80;;;;;;4997907;28;20124;-81
2022/05/24 12:33:52;;;;;;;2.70;0.75;;;17.80;57.30;;;;;;5013230;28;20145;-80
2022/05/24 12:36:44;;;;;;;3.25;0.70;;;17.80;57.40;;;;;;5006030;28;20054;-80
2022/05/24 12:39:14;;;;;;;2.67;0.80;;;17.80;57.50;;;;;;4978380;28;20046;-80
2022/05/24 12:41:44;;;;;;;3.80;0.90;;;17.80;57.90;;;;;;5004959;28;20038;-81
2022/05/24 12:44:12;;;;;;;2.85;0.90;;;17.80;58.00;;;;;;5015816;28;20049;-80
2022/05/24 12:46:40;;;;;;;3.03;1.02;;;17.80;58.10;;;;;;4998555;28;20050;-80
2022/05/24 12:49:15;;;;;;;4.50;1.42;;;17.80;58.10;;;;;;4997076;28;20225;-81
2022/05/24 12:51:41;;;;;;;2.35;0.80;;;17.90;58.40;;;;;;5008241;28;20507;-80
2022/05/24 12:54:26;;;;;;;3.95;1.40;;;17.90;58.10;;;;;;5013625;28;20363;-80
2022/05/24 12:56:54;;;;;;;3.50;0.90;;;17.90;58.40;;;;;;5003568;28;20054;-80
2022/05/24 12:59:37;;;;;;;3.72;1.60;;;17.90;58.70;;;;;;4996937;28;20061;-81
2022/05/24 13:02:17;;;;;;;4.50;1.58;;;18.00;58.70;;;;;;5011705;28;20068;-80
2022/05/24 13:04:44;;;;;;;4.55;1.38;;;18.00;58.40;;;;;;5016695;28;20046;-81
2022/05/24 13:07:27;;;;;;;2.97;1.20;;;18.00;58.10;;;;;;4999855;28;20121;-81
2022/05/24 13:09:55;;;;;;;3.00;1.15;;;18.10;57.80;;;;;;4996488;28;20042;-81
2022/05/24 13:12:21;;;;;;;3.35;1.40;;;18.10;57.90;;;;;;4997063;28;20058;-81
2022/05/24 13:14:59;;;;;;;2.30;1.70;;;18.20;57.80;;;;;;4995633;28;20054;-81
2022/05/24 13:17:28;;;;;;;4.30;1.80;;;18.30;57.80;;;;;;4997905;28;20129;-81
2022/05/24 13:20:03;;;;;;;2.40;1.45;;;18.40;57.20;;;;;;4996400;28;20078;-81
2022/05/24 13:22:45;;;;;;;3.00;1.58;;;18.40;56.30;;;;;;4995932;28;20077;-82
2022/05/24 13:25:20;;;;;;;3.67;1.70;;;18.50;56.60;;;;;;4995396;28;20490;-81
2022/05/24 13:28:01;;;;;;;4.30;2.00;;;18.50;56.40;;;;;;5011913;28;20050;-82
2022/05/24 13:33:42;;;;;;;3.85;1.90;;;18.70;55.30;;;;;;4996424;28;20062;-81
2022/05/24 13:36:20;;;;;;;3.10;1.90;;;18.80;54.70;;;;;;5028983;28;20090;-81
2022/05/24 13:39:05;;;;;;;2.97;1.45;;;18.90;54.00;;;;;;4996420;28;20133;-81
2022/05/24 13:41:37;;;;;;;3.38;1.60;;;18.90;54.20;;;;;;4996240;28;20065;-82
2022/05/24 13:44:28;;;;;;;2.70;1.30;;;19.00;54.80;;;;;;4996023;28;20062;-81
2022/05/24 13:47:23;;;;;;;2.45;1.55;;;19.00;54.00;;;;;;4995709;28;20054;-81
2022/05/24 13:49:50;;;;;;;4.05;1.58;;;19.20;54.00;;;;;;4994804;28;20130;-81
2022/05/24 13:52:33;;;;;;;5.25;1.33;;;19.20;54.40;;;;;;4996023;28;20043;-82